createdAt,value
2019-03-21T00:01:27.992Z,51.23
2019-03-21T00:04:03.129Z,51.87
2019-03-21T00:06:35.005Z,52.53
2019-03-21T00:09:11.231Z,55.20
2019-03-21T00:12:11.094Z,53.97
2019-03-21T00:15:23.441Z,56.13
2019-03-21T00:18:06.802Z,58.83
2019-03-21T00:20:40.574Z,58.87
2019-03-21T00:23:11.848Z,61.97
2019-03-21T00:25:43.169Z,65.67
2019-03-21T00:28:14.422Z,67.00
2019-03-21T00:30:46.736Z,64.07
2019-03-21T00:33:19.330Z,67.77
2019-03-21T00:35:50.606Z,64.47
2019-03-21T00:38:21.867Z,66.23
2019-03-21T00:40:53.162Z,64.33
2019-03-21T00:43:24.419Z,65.30
2019-03-21T00:45:56.866Z,65.83
2019-03-21T00:48:28.256Z,64.70
2019-03-21T00:51:03.577Z,67.73
2019-03-21T00:53:34.874Z,67.73
2019-03-21T00:56:06.970Z,67.27
2019-03-21T00:58:38.232Z,68.20
2019-03-21T01:01:13.697Z,67.27
2019-03-21T01:03:45.115Z,65.57
2019-03-21T01:06:16.369Z,67.43
2019-03-21T01:08:47.613Z,66.03
2019-03-21T01:11:18.887Z,68.87
2019-03-21T01:13:50.483Z,68.00
2019-03-21T01:16:24.617Z,68.60
2019-03-21T01:18:56.022Z,68.13
2019-03-21T01:21:27.333Z,68.93
2019-03-21T01:23:59.970Z,68.47
2019-03-21T01:26:31.360Z,67.87
2019-03-21T01:29:03.712Z,68.90
2019-03-21T01:31:35.082Z,69.27
2019-03-21T01:34:06.355Z,69.63
2019-03-21T01:36:37.686Z,68.20
2019-03-21T01:39:10.126Z,66.90
2019-03-21T01:41:41.517Z,67.80
2019-03-21T01:44:13.437Z,66.80
2019-03-21T01:46:44.739Z,64.53
2019-03-21T01:49:17.204Z,63.43
2019-03-21T01:51:48.693Z,66.97
2019-03-21T01:54:19.945Z,63.73
2019-03-21T01:56:51.443Z,62.20
2019-03-21T01:59:22.685Z,65.27
2019-03-21T02:01:55.682Z,65.13
2019-03-21T02:04:26.936Z,63.87
2019-03-21T02:06:58.231Z,62.63
2019-03-21T02:09:29.496Z,63.97
2019-03-21T02:12:00.986Z,63.73
2019-03-21T02:14:34.486Z,61.43
2019-03-21T02:17:07.682Z,63.60
2019-03-21T02:19:38.938Z,61.57
2019-03-21T02:22:11.455Z,62.73
2019-03-21T02:24:43.998Z,62.20
2019-03-21T02:27:15.293Z,62.27
2019-03-21T02:29:48.018Z,61.20
2019-03-21T02:32:19.410Z,63.67
2019-03-21T02:34:50.983Z,62.33
2019-03-21T02:37:22.279Z,60.83
2019-03-21T02:39:59.783Z,60.47
2019-03-21T02:42:29.375Z,60.80
2019-03-21T02:45:08.277Z,59.03
2019-03-21T02:47:33.800Z,57.87
2019-03-21T02:50:06.099Z,59.60
2019-03-21T02:52:37.401Z,58.63
2019-03-21T02:55:10.548Z,57.60
2019-03-21T02:57:41.924Z,59.53
2019-03-21T03:00:18.593Z,58.77
2019-03-21T03:02:51.104Z,57.93
2019-03-21T03:05:26.449Z,57.63
2019-03-21T03:07:59.019Z,57.60
2019-03-21T03:10:41.016Z,57.37
2019-03-21T03:13:14.177Z,56.83
2019-03-21T03:15:45.582Z,55.00
2019-03-21T03:18:20.078Z,55.57
2019-03-21T03:20:51.018Z,55.13
2019-03-21T03:23:22.354Z,56.13
2019-03-21T03:25:53.642Z,55.03
2019-03-21T03:28:27.566Z,51.80
2019-03-21T03:30:59.180Z,54.57
2019-03-21T03:33:32.991Z,53.70
2019-03-21T03:36:04.265Z,52.93
2019-03-21T03:38:37.571Z,53.83
2019-03-21T03:41:09.516Z,52.07
2019-03-21T03:43:40.832Z,50.87
2019-03-21T03:46:12.642Z,51.63
2019-03-21T03:48:43.926Z,49.67
2019-03-21T03:51:16.120Z,51.90
2019-03-21T03:53:47.420Z,50.37
2019-03-21T03:56:19.155Z,50.33
2019-03-21T03:58:51.827Z,50.00
2019-03-21T04:01:23.979Z,49.50
2019-03-21T04:03:57.039Z,48.63
2019-03-21T04:06:28.298Z,48.37
2019-03-21T04:08:59.627Z,49.13
2019-03-21T04:11:33.124Z,48.33
2019-03-21T04:14:04.419Z,48.47
2019-03-21T04:16:37.164Z,48.90
2019-03-21T04:19:08.502Z,47.70
2019-03-21T04:21:40.578Z,48.67
2019-03-21T04:24:11.890Z,48.00
2019-03-21T04:26:43.671Z,47.07
2019-03-21T04:29:15.053Z,47.37
2019-03-21T04:31:47.868Z,47.80
2019-03-21T04:34:19.114Z,48.37
2019-03-21T04:36:52.093Z,47.00
2019-03-21T04:39:23.338Z,46.63
2019-03-21T04:41:54.593Z,47.47
2019-03-21T04:44:25.838Z,45.53
2019-03-21T04:46:58.782Z,46.73
2019-03-21T04:49:32.384Z,44.70
2019-03-21T04:52:03.665Z,45.07
2019-03-21T04:54:36.875Z,42.63
2019-03-21T04:57:08.251Z,39.97
2019-03-21T04:59:39.575Z,40.10
2019-03-21T05:02:10.820Z,39.50
2019-03-21T05:04:43.722Z,40.83
2019-03-21T05:07:14.977Z,43.13
2019-03-21T05:09:46.225Z,41.57
2019-03-21T05:12:18.057Z,36.10
2019-03-21T05:14:49.436Z,36.83
2019-03-21T05:17:20.732Z,37.60
2019-03-21T05:19:53.943Z,36.40
2019-03-21T05:22:25.297Z,37.17
2019-03-21T05:25:05.496Z,35.83
2019-03-21T05:27:36.848Z,35.37
2019-03-21T05:30:15.485Z,35.47
2019-03-21T05:32:46.763Z,34.70
2019-03-21T05:35:18.029Z,33.43
2019-03-21T05:37:49.285Z,34.10
2019-03-21T05:40:21.179Z,32.77
2019-03-21T05:43:02.521Z,34.13
2019-03-21T05:45:33.863Z,32.73
2019-03-21T05:48:05.456Z,33.03
2019-03-21T05:50:36.785Z,33.27
2019-03-21T05:53:08.369Z,33.60
2019-03-21T05:55:40.678Z,34.27
2019-03-21T05:58:11.989Z,33.73
2019-03-21T06:00:44.727Z,33.50
2019-03-21T06:03:23.751Z,34.10
2019-03-21T06:06:11.565Z,32.97
2019-03-21T06:08:44.558Z,32.30
2019-03-21T06:11:15.936Z,32.87
2019-03-21T06:13:48.673Z,33.23
2019-03-21T06:16:20.111Z,34.07
2019-03-21T06:19:39.710Z,32.47
2019-03-21T06:23:09.224Z,34.90
2019-03-21T06:26:35.260Z,35.33
2019-03-21T06:29:08.155Z,34.80
2019-03-21T06:31:41.665Z,37.40
2019-03-21T06:34:13.871Z,36.07
2019-03-21T06:36:46.344Z,36.87
2019-03-21T06:39:19.393Z,40.53
2019-03-21T06:41:50.779Z,39.03
2019-03-21T06:44:22.612Z,39.43
2019-03-21T06:46:53.874Z,39.03
2019-03-21T06:49:30.754Z,39.03
2019-03-21T06:52:03.496Z,39.80
2019-03-21T06:54:34.778Z,36.47
2019-03-21T06:57:06.289Z,36.57
2019-03-21T06:59:37.527Z,37.53
2019-03-21T07:02:10.084Z,36.87
2019-03-21T07:04:41.418Z,37.27
2019-03-21T07:07:12.686Z,39.03
2019-03-21T07:09:43.997Z,37.17
2019-03-21T07:12:15.254Z,34.60
2019-03-21T07:14:46.524Z,35.40
2019-03-21T07:17:17.888Z,33.80
2019-03-21T07:19:49.164Z,35.33
2019-03-21T07:22:21.718Z,32.87
2019-03-21T07:24:54.554Z,35.90
2019-03-21T07:27:25.829Z,34.40
2019-03-21T07:29:57.165Z,35.27
2019-03-21T07:32:33.379Z,31.20
2019-03-21T07:35:01.544Z,30.67
2019-03-21T07:37:32.885Z,29.70
2019-03-21T07:40:04.978Z,29.37
2019-03-21T07:42:36.615Z,31.27
2019-03-21T07:45:10.088Z,32.63
2019-03-21T07:47:41.448Z,33.80
2019-03-21T07:50:13.588Z,33.07
2019-03-21T07:52:46.997Z,33.67
2019-03-21T07:55:18.419Z,33.77
2019-03-21T07:57:50.544Z,34.07
2019-03-21T08:00:21.810Z,35.03
2019-03-21T08:02:53.074Z,35.17
2019-03-21T08:05:25.398Z,34.77
2019-03-21T08:07:57.620Z,33.50
2019-03-21T08:10:30.220Z,33.47
2019-03-21T08:13:01.494Z,31.47
2019-03-21T08:15:32.839Z,31.83
2019-03-21T08:18:04.412Z,30.13
2019-03-21T08:20:35.740Z,28.00
2019-03-21T08:23:08.005Z,27.47
2019-03-21T08:25:42.442Z,27.33
2019-03-21T08:28:14.282Z,27.37
2019-03-21T08:31:27.723Z,25.57
2019-03-21T08:33:59.451Z,26.37
2019-03-21T08:36:33.529Z,25.47
2019-03-21T08:39:06.982Z,25.30
2019-03-21T08:41:42.328Z,23.73
2019-03-21T08:44:13.594Z,22.87
2019-03-21T08:46:44.856Z,23.33
2019-03-21T08:49:16.282Z,23.70
2019-03-21T08:51:47.533Z,23.10
2019-03-21T08:54:18.815Z,22.67
2019-03-21T08:56:51.812Z,22.50
2019-03-21T08:59:24.220Z,26.30
2019-03-21T09:01:55.600Z,24.63
2019-03-21T09:04:28.964Z,24.57
2019-03-21T09:07:00.214Z,24.00
2019-03-21T09:09:36.356Z,24.30
2019-03-21T09:12:07.625Z,24.03
2019-03-21T09:14:39.273Z,23.23
2019-03-21T09:17:11.944Z,23.70
2019-03-21T09:19:43.259Z,22.33
2019-03-21T09:22:16.003Z,21.23
2019-03-21T09:24:47.577Z,20.70
2019-03-21T09:27:19.921Z,22.00
2019-03-21T09:29:55.519Z,21.73
2019-03-21T09:32:26.962Z,21.67
2019-03-21T09:34:58.294Z,21.20
2019-03-21T09:37:29.562Z,21.27
2019-03-21T09:40:03.344Z,20.97
2019-03-21T09:42:35.638Z,20.67
2019-03-21T09:45:08.285Z,20.80
2019-03-21T09:47:42.434Z,21.60
2019-03-21T09:50:18.681Z,23.20
2019-03-21T09:52:51.163Z,23.53
2019-03-21T09:55:22.433Z,24.37
2019-03-21T09:57:53.699Z,24.73
2019-03-21T10:00:36.364Z,24.27
2019-03-21T10:03:07.965Z,23.00
2019-03-21T10:05:39.242Z,23.23
2019-03-21T10:08:10.520Z,23.17
2019-03-21T10:10:43.279Z,22.53
2019-03-21T10:13:14.612Z,23.53
2019-03-21T10:15:45.919Z,23.63
2019-03-21T10:18:17.161Z,25.80
2019-03-21T10:20:48.481Z,24.73
2019-03-21T10:23:20.140Z,25.53
2019-03-21T10:25:52.242Z,25.53
2019-03-21T10:28:23.555Z,24.83
2019-03-21T10:30:57.282Z,25.77
2019-03-21T10:33:30.766Z,23.17
2019-03-21T10:36:02.963Z,24.53
2019-03-21T10:38:34.857Z,22.77
2019-03-21T10:41:07.451Z,23.97
2019-03-21T10:43:38.870Z,25.63
2019-03-21T10:46:11.130Z,22.90
2019-03-21T10:48:42.420Z,24.00
2019-03-21T10:51:13.692Z,25.67
2019-03-21T10:53:45.083Z,25.33
2019-03-21T10:56:16.336Z,25.30
2019-03-21T10:58:48.574Z,27.23
2019-03-21T11:01:23.437Z,26.47
2019-03-21T11:03:55.600Z,25.37
2019-03-21T11:06:26.879Z,25.17
2019-03-21T11:08:58.283Z,22.87
2019-03-21T11:11:29.542Z,24.83
2019-03-21T11:14:00.810Z,24.10
2019-03-21T11:16:32.081Z,22.87
2019-03-21T11:19:04.475Z,22.70
2019-03-21T11:21:36.756Z,23.40
2019-03-21T11:24:08.004Z,22.30
2019-03-21T11:26:39.294Z,22.67
2019-03-21T11:29:10.558Z,23.40
2019-03-21T11:31:41.798Z,22.90
2019-03-21T11:34:13.166Z,22.90
2019-03-21T11:36:44.433Z,23.70
2019-03-21T11:39:15.735Z,22.57
2019-03-21T11:41:47.141Z,23.93
2019-03-21T11:44:18.528Z,21.87
2019-03-21T11:46:49.847Z,22.40
2019-03-21T11:49:25.027Z,22.77
2019-03-21T11:51:56.407Z,20.80
2019-03-21T11:54:27.666Z,21.43
2019-03-21T11:56:58.918Z,20.80
2019-03-21T11:59:41.617Z,17.63
2019-03-21T12:02:04.597Z,16.70
2019-03-21T12:04:37.117Z,15.43
2019-03-21T12:07:08.392Z,14.90
2019-03-21T12:09:40.501Z,14.33
2019-03-21T12:12:11.820Z,14.97
2019-03-21T12:14:43.138Z,14.83
2019-03-21T12:17:14.428Z,13.07
2019-03-21T12:19:45.693Z,13.30
2019-03-21T12:22:29.241Z,13.87
2019-03-21T12:24:51.417Z,13.63
2019-03-21T12:27:24.530Z,13.77
2019-03-21T12:29:55.993Z,13.20
2019-03-21T12:32:27.262Z,13.10
2019-03-21T12:34:58.536Z,12.47
2019-03-21T12:37:30.020Z,13.40
2019-03-21T12:40:03.099Z,12.70
2019-03-21T12:42:34.356Z,15.57
2019-03-21T12:45:08.265Z,16.53
2019-03-21T12:47:39.671Z,15.53
2019-03-21T12:50:11.059Z,15.53
2019-03-21T12:52:42.396Z,15.33
2019-03-21T12:55:14.672Z,15.93
2019-03-21T12:57:47.243Z,15.70
2019-03-21T13:00:33.387Z,16.90
2019-03-21T13:03:05.749Z,20.37
2019-03-21T13:05:37.484Z,24.30
2019-03-21T13:08:10.760Z,23.53
2019-03-21T13:10:42.076Z,25.73
2019-03-21T13:13:15.348Z,24.97
2019-03-21T13:15:46.862Z,25.43
2019-03-21T13:18:18.115Z,26.43
2019-03-21T13:20:51.298Z,27.57
2019-03-21T13:23:25.099Z,27.37
2019-03-21T13:25:59.027Z,28.43
2019-03-21T13:28:32.545Z,28.07
2019-03-21T13:31:09.773Z,26.80
2019-03-21T13:33:42.677Z,26.73
2019-03-21T13:36:15.452Z,23.30
2019-03-21T13:38:46.812Z,24.37
2019-03-21T13:41:19.455Z,23.43
2019-03-21T13:43:50.718Z,22.53
2019-03-21T13:46:22.007Z,20.97
2019-03-21T13:48:53.266Z,21.20
2019-03-21T13:51:24.520Z,20.43
2019-03-21T13:53:57.698Z,19.77
2019-03-21T13:56:37.926Z,20.37
2019-03-21T13:59:04.049Z,20.30
2019-03-21T14:01:35.305Z,20.07
2019-03-21T14:04:07.971Z,20.10
2019-03-21T14:06:39.527Z,20.27
2019-03-21T14:09:11.426Z,18.47
2019-03-21T14:11:42.739Z,20.47
2019-03-21T14:14:14.023Z,20.73
2019-03-21T14:16:45.777Z,23.80
2019-03-21T14:19:18.062Z,23.63
2019-03-21T14:21:50.848Z,24.27
2019-03-21T14:24:22.284Z,23.73
2019-03-21T14:26:53.557Z,22.87
2019-03-21T14:29:24.802Z,22.30
2019-03-21T14:31:56.219Z,19.80
2019-03-21T14:34:27.663Z,18.53
2019-03-21T14:36:59.755Z,18.00
2019-03-21T14:39:31.236Z,17.63
2019-03-21T14:42:04.185Z,17.30
2019-03-21T14:44:35.508Z,16.90
2019-03-21T14:47:06.785Z,17.23
2019-03-21T14:49:38.043Z,17.03
2019-03-21T14:52:09.317Z,18.23
2019-03-21T14:54:41.521Z,18.90
2019-03-21T14:57:12.922Z,20.60
2019-03-21T14:59:44.203Z,19.73
2019-03-21T15:02:15.523Z,19.37
2019-03-21T15:04:48.392Z,21.13
2019-03-21T15:07:19.684Z,23.00
2019-03-21T15:09:51.172Z,23.17
2019-03-21T15:12:22.462Z,23.80
2019-03-21T15:14:53.711Z,23.33
2019-03-21T15:17:25.975Z,23.00
2019-03-21T15:19:58.637Z,22.97
2019-03-21T15:22:29.919Z,21.50
2019-03-21T15:25:01.183Z,22.43
2019-03-21T15:27:34.539Z,22.33
2019-03-21T15:30:07.619Z,22.37
2019-03-21T15:32:41.733Z,22.20
2019-03-21T15:35:13.946Z,22.53
2019-03-21T15:37:45.918Z,23.07
2019-03-21T15:40:17.466Z,23.07
2019-03-21T15:42:48.815Z,21.90
2019-03-21T15:45:23.291Z,23.73
2019-03-21T15:47:55.095Z,22.97
2019-03-21T15:50:37.406Z,23.80
2019-03-21T15:53:08.613Z,24.70
2019-03-21T15:55:41.014Z,24.60
2019-03-21T15:58:13.482Z,24.63
2019-03-21T16:00:45.217Z,24.77
2019-03-21T16:03:18.786Z,23.47
2019-03-21T16:05:50.049Z,23.40
2019-03-21T16:08:22.133Z,23.77
2019-03-21T16:10:53.455Z,23.63
2019-03-21T16:13:26.534Z,23.70
2019-03-21T16:15:57.782Z,23.30
2019-03-21T16:18:29.918Z,22.20
2019-03-21T16:21:01.829Z,23.87
2019-03-21T16:23:33.317Z,25.30
2019-03-21T16:26:05.227Z,23.50
2019-03-21T16:28:36.477Z,24.50
2019-03-21T16:31:08.026Z,23.80
2019-03-21T16:33:39.320Z,24.37
2019-03-21T16:36:10.803Z,23.23
2019-03-21T16:38:43.532Z,23.80
2019-03-21T16:41:15.227Z,23.57
2019-03-21T16:43:47.015Z,22.27
2019-03-21T16:46:19.718Z,23.23
2019-03-21T16:48:51.387Z,23.20
2019-03-21T16:51:22.637Z,22.97
2019-03-21T16:53:53.906Z,23.17
2019-03-21T16:56:25.170Z,23.27
2019-03-21T16:58:58.714Z,22.53
2019-03-21T17:01:29.632Z,20.33
2019-03-21T17:04:00.922Z,19.53
2019-03-21T17:06:32.173Z,18.00
2019-03-21T17:09:04.353Z,18.00
2019-03-21T17:11:35.619Z,18.20
2019-03-21T17:14:07.184Z,18.60
2019-03-21T17:16:38.492Z,18.10
2019-03-21T17:19:10.337Z,19.03
2019-03-21T17:21:41.672Z,18.93
2019-03-21T17:24:13.615Z,18.83
2019-03-21T17:26:44.859Z,19.03
2019-03-21T17:29:17.281Z,18.97
2019-03-21T17:31:48.540Z,18.73
2019-03-21T17:34:19.814Z,18.47
2019-03-21T17:36:51.059Z,18.43
2019-03-21T17:39:22.513Z,18.17
2019-03-21T17:41:53.770Z,17.80
2019-03-21T17:44:26.211Z,18.33
2019-03-21T17:46:57.470Z,18.03
2019-03-21T17:49:29.445Z,18.20
2019-03-21T17:52:00.778Z,18.17
2019-03-21T17:54:40.928Z,19.33
2019-03-21T17:57:05.411Z,20.57
2019-03-21T17:59:36.730Z,19.57
2019-03-21T18:02:07.989Z,20.17
2019-03-21T18:04:39.254Z,20.03
2019-03-21T18:07:10.498Z,20.97
2019-03-21T18:09:42.279Z,20.10
2019-03-21T18:12:13.588Z,20.63
2019-03-21T18:14:45.077Z,20.70
2019-03-21T18:17:16.343Z,21.77
2019-03-21T18:19:49.088Z,23.60
2019-03-21T18:22:20.525Z,23.27
2019-03-21T18:24:54.037Z,21.90
2019-03-21T18:27:25.588Z,22.10
2019-03-21T18:29:57.725Z,22.33
2019-03-21T18:32:29.931Z,23.63
2019-03-21T18:35:03.438Z,23.07
2019-03-21T18:37:36.226Z,22.30
2019-03-21T18:40:08.241Z,22.07
2019-03-21T18:42:40.565Z,22.90
2019-03-21T18:45:14.479Z,22.53
2019-03-21T18:47:45.767Z,22.57
2019-03-21T18:50:19.758Z,23.47
2019-03-21T18:52:51.223Z,24.07
2019-03-21T18:55:22.482Z,22.87
2019-03-21T18:57:53.755Z,22.20
2019-03-21T19:00:26.018Z,22.70
2019-03-21T19:03:00.499Z,22.37
2019-03-21T19:05:32.230Z,22.23
2019-03-21T19:08:04.648Z,22.20
2019-03-21T19:10:35.908Z,22.67
2019-03-21T19:13:08.330Z,22.80
2019-03-21T19:15:39.944Z,23.90
2019-03-21T19:18:12.167Z,24.87
2019-03-21T19:20:44.946Z,24.20
2019-03-21T19:23:16.335Z,23.87
2019-03-21T19:25:47.750Z,25.97
2019-03-21T19:28:19.057Z,26.10
2019-03-21T19:30:50.317Z,25.37
2019-03-21T19:33:22.764Z,26.00
2019-03-21T19:35:54.170Z,26.67
2019-03-21T19:38:26.389Z,27.53
2019-03-21T19:40:57.639Z,27.27
2019-03-21T19:43:28.892Z,27.63
2019-03-21T19:46:00.255Z,27.97
2019-03-21T19:48:31.593Z,27.20
2019-03-21T19:51:02.895Z,27.63
2019-03-21T19:53:37.481Z,28.03
2019-03-21T19:56:09.016Z,26.93
2019-03-21T19:58:40.337Z,28.60
2019-03-21T20:01:11.818Z,28.77
2019-03-21T20:03:43.075Z,29.10
2019-03-21T20:06:14.415Z,30.07
2019-03-21T20:08:45.675Z,29.97
2019-03-21T20:11:18.175Z,30.03
2019-03-21T20:13:49.476Z,29.80
2019-03-21T20:16:20.875Z,30.33
2019-03-21T20:18:52.146Z,31.63
2019-03-21T20:21:23.405Z,32.00
2019-03-21T20:23:58.569Z,31.73
2019-03-21T20:26:36.825Z,32.00
2019-03-21T20:29:09.334Z,32.03
2019-03-21T20:31:41.280Z,32.27
2019-03-21T20:34:13.174Z,33.10
2019-03-21T20:36:46.154Z,32.20
2019-03-21T20:39:18.317Z,33.00
2019-03-21T20:41:50.936Z,33.93
2019-03-21T20:44:30.431Z,34.30
2019-03-21T20:47:05.117Z,33.50
2019-03-21T20:49:40.898Z,35.00
2019-03-21T20:52:13.752Z,33.53
2019-03-21T20:54:46.913Z,31.80
2019-03-21T20:57:18.755Z,32.63
2019-03-21T20:59:51.501Z,31.53
2019-03-21T21:02:22.796Z,32.80
2019-03-21T21:04:55.636Z,32.10
2019-03-21T21:07:29.158Z,31.77
2019-03-21T21:10:01.682Z,31.60
2019-03-21T21:12:36.158Z,30.33
2019-03-21T21:15:08.376Z,31.20
2019-03-21T21:17:39.813Z,29.67
2019-03-21T21:20:12.919Z,30.20
2019-03-21T21:22:45.092Z,30.33
2019-03-21T21:25:19.302Z,29.77
2019-03-21T21:27:50.604Z,30.50
2019-03-21T21:30:22.800Z,30.70
2019-03-21T21:32:54.142Z,29.40
2019-03-21T21:35:26.268Z,29.37
2019-03-21T21:37:57.532Z,29.77
2019-03-21T21:40:32.527Z,29.80
2019-03-21T21:43:03.192Z,28.90
2019-03-21T21:45:34.459Z,29.27
2019-03-21T21:48:05.822Z,27.87
2019-03-21T21:50:44.354Z,27.50
2019-03-21T21:53:15.809Z,27.43
2019-03-21T21:55:47.057Z,26.10
2019-03-21T21:58:18.912Z,25.80
2019-03-21T22:00:50.182Z,26.17
2019-03-21T22:03:21.470Z,26.03
2019-03-21T22:05:53.012Z,27.27
2019-03-21T22:08:25.463Z,28.03
2019-03-21T22:10:56.832Z,28.83
2019-03-21T22:13:28.094Z,29.53
2019-03-21T22:15:59.604Z,30.10
2019-03-21T22:18:30.877Z,29.23
2019-03-21T22:21:02.156Z,27.93
2019-03-21T22:23:33.616Z,26.43
2019-03-21T22:26:04.903Z,25.47
2019-03-21T22:28:37.173Z,25.43
2019-03-21T22:31:08.459Z,25.47
2019-03-21T22:33:39.771Z,25.97
2019-03-21T22:36:11.033Z,26.10
2019-03-21T22:38:42.280Z,26.57
2019-03-21T22:41:14.492Z,29.60
2019-03-21T22:43:46.649Z,26.77
2019-03-21T22:46:17.962Z,28.33
2019-03-21T22:48:49.483Z,27.53
2019-03-21T22:51:21.020Z,28.10
2019-03-21T22:53:53.159Z,26.80
2019-03-21T22:56:24.457Z,28.20
2019-03-21T22:58:55.765Z,28.10
2019-03-21T23:01:28.585Z,28.03
2019-03-21T23:03:59.864Z,29.03
2019-03-21T23:06:31.119Z,27.60
2019-03-21T23:09:02.816Z,26.70
2019-03-21T23:11:34.085Z,29.10
2019-03-21T23:14:05.369Z,28.80
2019-03-21T23:16:36.871Z,31.47
2019-03-21T23:19:09.462Z,31.93
2019-03-21T23:21:41.499Z,30.83
2019-03-21T23:24:13.579Z,30.43
2019-03-21T23:26:52.851Z,28.97
2019-03-21T23:29:18.141Z,30.00
2019-03-21T23:31:50.720Z,31.10
2019-03-21T23:34:21.963Z,33.90
2019-03-21T23:36:53.601Z,33.33
2019-03-21T23:39:25.129Z,32.03
2019-03-21T23:41:56.892Z,31.30
2019-03-21T23:44:29.037Z,32.57
2019-03-21T23:47:01.697Z,32.87
2019-03-21T23:49:33.331Z,32.90
2019-03-21T23:52:04.663Z,33.90
2019-03-21T23:54:35.905Z,33.07
2019-03-21T23:57:07.932Z,34.80
2019-03-21T23:59:39.199Z,34.50
